sensor_id;sensor_type;location;lat;lon;timestamp;P1;durP1;ratioP1;P2;durP2;ratioP2
75516;SDS011;64097;52.548;13.406;2023-06-26T06:03:32;9.48;;;8.57;;
75516;SDS011;64097;52.548;13.406;2023-06-26T06:05:58;8.30;;;7.60;;
75516;SDS011;64097;52.548;13.406;2023-06-26T06:08:24;9.40;;;8.60;;
75516;SDS011;64097;52.548;13.406;2023-06-26T06:10:50;8.75;;;8.05;;
75516;SDS011;64097;52.548;13.406;2023-06-26T06:13:15;9.23;;;8.15;;
75516;SDS011;64097;52.548;13.406;2023-06-26T06:15:41;8.20;;;7.40;;
75516;SDS011;64097;52.548;13.406;2023-06-26T06:18:07;9.20;;;8.35;;
75516;SDS011;64097;52.548;13.406;2023-06-26T06:20:32;7.95;;;7.28;;
75516;SDS011;64097;52.548;13.406;2023-06-26T06:22:58;7.20;;;6.50;;
75516;SDS011;64097;52.548;13.406;2023-06-26T06:25:24;7.45;;;6.78;;
75516;SDS011;64097;52.548;13.406;2023-06-26T06:27:50;7.97;;;7.28;;
75516;SDS011;64097;52.548;13.406;2023-06-26T06:30:15;6.63;;;6.13;;
75516;SDS011;64097;52.548;13.406;2023-06-26T06:32:41;7.10;;;6.50;;
75516;SDS011;64097;52.548;13.406;2023-06-26T06:35:06;7.18;;;6.57;;
75516;SDS011;64097;52.548;13.406;2023-06-26T06:37:35;7.93;;;6.43;;
75516;SDS011;64097;52.548;13.406;2023-06-26T06:40:02;7.15;;;6.50;;
75516;SDS011;64097;52.548;13.406;2023-06-26T06:42:29;6.70;;;6.00;;
75516;SDS011;64097;52.548;13.406;2023-06-26T06:44:54;7.13;;;6.45;;
75516;SDS011;64097;52.548;13.406;2023-06-26T06:47:20;6.55;;;5.93;;
75516;SDS011;64097;52.548;13.406;2023-06-26T06:49:46;6.57;;;5.97;;
75516;SDS011;64097;52.548;13.406;2023-06-26T06:52:12;6.25;;;5.75;;
75516;SDS011;64097;52.548;13.406;2023-06-26T06:54:58;7.03;;;6.32;;
75516;SDS011;64097;52.548;13.406;2023-06-26T06:57:30;6.40;;;5.85;;
75516;SDS011;64097;52.548;13.406;2023-06-26T06:59:55;6.22;;;5.72;;
75516;SDS011;64097;52.548;13.406;2023-06-26T07:02:21;6.88;;;5.50;;
75516;SDS011;64097;52.548;13.406;2023-06-26T07:04:47;6.90;;;6.30;;
75516;SDS011;64097;52.548;13.406;2023-06-26T07:07:13;6.22;;;5.68;;
75516;SDS011;64097;52.548;13.406;2023-06-26T07:09:39;7.53;;;5.90;;
75516;SDS011;64097;52.548;13.406;2023-06-26T07:12:05;6.88;;;6.18;;
75516;SDS011;64097;52.548;13.406;2023-06-26T07:14:30;9.20;;;6.10;;
75516;SDS011;64097;52.548;13.406;2023-06-26T07:16:56;6.78;;;6.03;;
75516;SDS011;64097;52.548;13.406;2023-06-26T07:19:22;6.55;;;6.03;;
75516;SDS011;64097;52.548;13.406;2023-06-26T07:21:48;6.22;;;5.72;;
75516;SDS011;64097;52.548;13.406;2023-06-26T07:24:14;6.32;;;5.72;;
75516;SDS011;64097;52.548;13.406;2023-06-26T07:26:39;6.15;;;5.55;;
75516;SDS011;64097;52.548;13.406;2023-06-26T07:29:05;6.63;;;5.93;;
75516;SDS011;64097;52.548;13.406;2023-06-26T07:31:32;5.97;;;5.53;;
75516;SDS011;64097;52.548;13.406;2023-06-26T07:33:57;6.70;;;6.10;;
75516;SDS011;64097;52.548;13.406;2023-06-26T07:36:23;6.22;;;5.72;;
75516;SDS011;64097;52.548;13.406;2023-06-26T07:38:48;5.78;;;5.15;;
75516;SDS011;64097;52.548;13.406;2023-06-26T07:41:14;5.32;;;4.93;;
75516;SDS011;64097;52.548;13.406;2023-06-26T07:43:40;7.03;;;5.57;;
75516;SDS011;64097;52.548;13.406;2023-06-26T07:46:05;5.97;;;5.38;;
75516;SDS011;64097;52.548;13.406;2023-06-26T07:48:31;5.20;;;4.80;;
75516;SDS011;64097;52.548;13.406;2023-06-26T07:50:57;6.32;;;5.00;;
75516;SDS011;64097;52.548;13.406;2023-06-26T07:53:22;5.60;;;5.10;;
75516;SDS011;64097;52.548;13.406;2023-06-26T07:55:48;5.47;;;4.85;;
75516;SDS011;64097;52.548;13.406;2023-06-26T07:58:14;7.50;;;4.88;;
75516;SDS011;64097;52.548;13.406;2023-06-26T08:00:40;6.13;;;5.35;;
75516;SDS011;64097;52.548;13.406;2023-06-26T08:03:06;5.15;;;4.65;;
75516;SDS011;64097;52.548;13.406;2023-06-26T08:05:31;5.68;;;4.70;;
75516;SDS011;64097;52.548;13.406;2023-06-26T08:07:57;5.13;;;4.70;;
75516;SDS011;64097;52.548;13.406;2023-06-26T08:10:23;4.97;;;4.57;;
75516;SDS011;64097;52.548;13.406;2023-06-26T08:12:49;5.22;;;4.82;;
75516;SDS011;64097;52.548;13.406;2023-06-26T08:15:15;5.35;;;4.95;;
75516;SDS011;64097;52.548;13.406;2023-06-26T08:17:41;5.82;;;4.60;;
75516;SDS011;64097;52.548;13.406;2023-06-26T08:20:07;5.28;;;4.78;;
75516;SDS011;64097;52.548;13.406;2023-06-26T08:22:33;5.38;;;4.75;;
75516;SDS011;64097;52.548;13.406;2023-06-26T08:24:59;4.82;;;4.40;;
75516;SDS011;64097;52.548;13.406;2023-06-26T08:27:25;4.95;;;4.35;;
75516;SDS011;64097;52.548;13.406;2023-06-26T08:29:51;4.57;;;4.20;;
75516;SDS011;64097;52.548;13.406;2023-06-26T08:32:16;5.13;;;4.60;;
75516;SDS011;64097;52.548;13.406;2023-06-26T08:34:42;4.43;;;4.13;;
75516;SDS011;64097;52.548;13.406;2023-06-26T08:37:08;4.82;;;4.53;;
75516;SDS011;64097;52.548;13.406;2023-06-26T08:39:36;4.70;;;4.30;;
75516;SDS011;64097;52.548;13.406;2023-06-26T08:42:02;4.38;;;3.97;;
75516;SDS011;64097;52.548;13.406;2023-06-26T08:44:27;4.32;;;4.00;;
75516;SDS011;64097;52.548;13.406;2023-06-26T08:46:53;4.13;;;3.70;;
75516;SDS011;64097;52.548;13.406;2023-06-26T08:52:23;3.90;;;3.60;;
75516;SDS011;64097;52.548;13.406;2023-06-26T08:54:53;4.45;;;4.15;;
75516;SDS011;64097;52.548;13.406;2023-06-26T08:57:23;4.00;;;3.70;;
75516;SDS011;64097;52.548;13.406;2023-06-26T08:59:49;4.03;;;3.72;;
75516;SDS011;64097;52.548;13.406;2023-06-26T09:02:16;4.30;;;3.90;;
75516;SDS011;64097;52.548;13.406;2023-06-26T09:04:42;3.95;;;3.65;;
75516;SDS011;64097;52.548;13.406;2023-06-26T09:07:08;4.35;;;3.65;;
75516;SDS011;64097;52.548;13.406;2023-06-26T09:09:34;4.15;;;3.80;;
75516;SDS011;64097;52.548;13.406;2023-06-26T09:12:03;4.38;;;3.97;;
75516;SDS011;64097;52.548;13.406;2023-06-26T09:14:30;4.70;;;4.30;;
75516;SDS011;64097;52.548;13.406;2023-06-26T09:16:55;4.05;;;3.78;;
75516;SDS011;64097;52.548;13.406;2023-06-26T09:19:21;3.63;;;3.33;;
75516;SDS011;64097;52.548;13.406;2023-06-26T09:21:48;4.20;;;3.90;;
75516;SDS011;64097;52.548;13.406;2023-06-26T09:24:16;4.10;;;3.80;;
75516;SDS011;64097;52.548;13.406;2023-06-26T09:26:42;4.40;;;4.10;;
75516;SDS011;64097;52.548;13.406;2023-06-26T09:29:09;4.47;;;4.10;;
75516;SDS011;64097;52.548;13.406;2023-06-26T09:31:36;4.40;;;4.10;;
75516;SDS011;64097;52.548;13.406;2023-06-26T09:34:02;4.25;;;3.90;;
75516;SDS011;64097;52.548;13.406;2023-06-26T09:36:29;4.20;;;3.80;;
75516;SDS011;64097;52.548;13.406;2023-06-26T09:39:01;3.90;;;3.60;;
75516;SDS011;64097;52.548;13.406;2023-06-26T09:41:29;4.00;;;3.70;;
75516;SDS011;64097;52.548;13.406;2023-06-26T09:43:56;4.32;;;3.88;;
75516;SDS011;64097;52.548;13.406;2023-06-26T09:46:29;4.18;;;3.88;;
75516;SDS011;64097;52.548;13.406;2023-06-26T09:49:03;4.45;;;4.15;;
75516;SDS011;64097;52.548;13.406;2023-06-26T09:51:34;4.35;;;3.85;;
75516;SDS011;64097;52.548;13.406;2023-06-26T09:54:01;4.70;;;4.40;;
75516;SDS011;64097;52.548;13.406;2023-06-26T09:56:28;5.15;;;4.43;;
75516;SDS011;64097;52.548;13.406;2023-06-26T09:58:58;4.10;;;3.80;;
75516;SDS011;64097;52.548;13.406;2023-06-26T10:01:28;4.10;;;3.80;;
75516;SDS011;64097;52.548;13.406;2023-06-26T10:03:55;4.30;;;4.00;;
75516;SDS011;64097;52.548;13.406;2023-06-26T10:06:24;4.10;;;3.80;;
75516;SDS011;64097;52.548;13.406;2023-06-26T10:09:02;4.15;;;3.85;;
75516;SDS011;64097;52.548;13.406;2023-06-26T10:11:36;5.50;;;4.07;;
75516;SDS011;64097;52.548;13.406;2023-06-26T10:14:07;4.25;;;3.90;;
75516;SDS011;64097;52.548;13.406;2023-06-26T10:16:34;4.38;;;3.80;;
75516;SDS011;64097;52.548;13.406;2023-06-26T10:19:05;3.88;;;3.58;;
75516;SDS011;64097;52.548;13.406;2023-06-26T10:21:32;4.22;;;3.83;;
75516;SDS011;64097;52.548;13.406;2023-06-26T10:24:00;6.70;;;4.40;;
75516;SDS011;64097;52.548;13.406;2023-06-26T10:26:30;3.88;;;3.40;;
75516;SDS011;64097;52.548;13.406;2023-06-26T10:28:58;4.47;;;3.80;;
75516;SDS011;64097;52.548;13.406;2023-06-26T10:31:26;4.13;;;3.60;;
75516;SDS011;64097;52.548;13.406;2023-06-26T10:33:53;4.45;;;3.60;;
75516;SDS011;64097;52.548;13.406;2023-06-26T10:36:20;3.58;;;3.35;;
75516;SDS011;64097;52.548;13.406;2023-06-26T10:38:56;4.30;;;3.50;;
75516;SDS011;64097;52.548;13.406;2023-06-26T10:41:30;5.07;;;3.38;;
75516;SDS011;64097;52.548;13.406;2023-06-26T10:46:50;4.82;;;3.78;;
75516;SDS011;64097;52.548;13.406;2023-06-26T10:51:50;6.40;;;3.90;;
75516;SDS011;64097;52.548;13.406;2023-06-26T10:54:17;4.75;;;3.42;;
75516;SDS011;64097;52.548;13.406;2023-06-26T10:56:45;3.70;;;3.40;;
75516;SDS011;64097;52.548;13.406;2023-06-26T10:59:15;5.55;;;3.60;;
75516;SDS011;64097;52.548;13.406;2023-06-26T11:01:46;4.00;;;3.33;;
75516;SDS011;64097;52.548;13.406;2023-06-26T11:04:35;4.40;;;4.00;;
75516;SDS011;64097;52.548;13.406;2023-06-26T11:07:15;4.38;;;3.70;;
75516;SDS011;64097;52.548;13.406;2023-06-26T11:09:57;5.95;;;4.18;;
75516;SDS011;64097;52.548;13.406;2023-06-26T11:15:06;6.18;;;3.85;;
75516;SDS011;64097;52.548;13.406;2023-06-26T11:17:34;7.32;;;4.50;;
75516;SDS011;64097;52.548;13.406;2023-06-26T11:20:00;4.40;;;4.05;;
75516;SDS011;64097;52.548;13.406;2023-06-26T11:22:26;4.03;;;3.78;;
75516;SDS011;64097;52.548;13.406;2023-06-26T11:24:53;4.72;;;3.80;;
75516;SDS011;64097;52.548;13.406;2023-06-26T11:27:19;7.00;;;4.28;;
75516;SDS011;64097;52.548;13.406;2023-06-26T11:29:48;3.53;;;3.22;;
75516;SDS011;64097;52.548;13.406;2023-06-26T11:32:17;4.10;;;3.80;;
75516;SDS011;64097;52.548;13.406;2023-06-26T11:34:43;4.07;;;3.65;;
75516;SDS011;64097;52.548;13.406;2023-06-26T11:37:09;3.85;;;3.47;;
75516;SDS011;64097;52.548;13.406;2023-06-26T11:39:35;4.10;;;3.80;;
75516;SDS011;64097;52.548;13.406;2023-06-26T11:42:02;4.43;;;4.03;;
75516;SDS011;64097;52.548;13.406;2023-06-26T11:44:31;4.38;;;3.97;;
75516;SDS011;64097;52.548;13.406;2023-06-26T11:46:57;4.30;;;4.00;;
75516;SDS011;64097;52.548;13.406;2023-06-26T11:49:23;6.20;;;3.95;;
75516;SDS011;64097;52.548;13.406;2023-06-26T11:51:50;4.00;;;3.67;;
75516;SDS011;64097;52.548;13.406;2023-06-26T11:54:24;5.05;;;4.30;;
75516;SDS011;64097;52.548;13.406;2023-06-26T11:56:54;4.43;;;4.03;;
75516;SDS011;64097;52.548;13.406;2023-06-26T11:59:22;4.30;;;4.00;;
75516;SDS011;64097;52.548;13.406;2023-06-26T12:01:49;4.13;;;3.60;;
75516;SDS011;64097;52.548;13.406;2023-06-26T12:04:16;5.13;;;4.03;;
75516;SDS011;64097;52.548;13.406;2023-06-26T12:06:48;4.55;;;4.15;;
75516;SDS011;64097;52.548;13.406;2023-06-26T12:11:46;4.57;;;4.13;;
75516;SDS011;64097;52.548;13.406;2023-06-26T12:14:16;4.13;;;3.72;;
75516;SDS011;64097;52.548;13.406;2023-06-26T12:16:43;4.10;;;3.70;;
75516;SDS011;64097;52.548;13.406;2023-06-26T12:19:09;5.00;;;4.50;;
75516;SDS011;64097;52.548;13.406;2023-06-26T12:24:07;4.28;;;3.83;;
75516;SDS011;64097;52.548;13.406;2023-06-26T12:26:34;4.10;;;3.75;;
75516;SDS011;64097;52.548;13.406;2023-06-26T12:29:07;4.38;;;4.07;;
75516;SDS011;64097;52.548;13.406;2023-06-26T12:31:44;5.10;;;4.60;;
75516;SDS011;64097;52.548;13.406;2023-06-26T12:34:21;5.90;;;4.18;;
75516;SDS011;64097;52.548;13.406;2023-06-26T12:36:51;6.07;;;4.40;;
75516;SDS011;64097;52.548;13.406;2023-06-26T12:39:18;5.07;;;4.57;;
75516;SDS011;64097;52.548;13.406;2023-06-26T12:41:57;4.75;;;4.38;;
75516;SDS011;64097;52.548;13.406;2023-06-26T12:44:25;4.75;;;4.30;;
75516;SDS011;64097;52.548;13.406;2023-06-26T12:46:56;5.40;;;4.50;;
75516;SDS011;64097;52.548;13.406;2023-06-26T12:49:36;5.45;;;4.95;;
75516;SDS011;64097;52.548;13.406;2023-06-26T12:52:04;5.75;;;4.70;;
75516;SDS011;64097;52.548;13.406;2023-06-26T12:54:33;5.15;;;4.68;;
75516;SDS011;64097;52.548;13.406;2023-06-26T12:57:03;7.15;;;5.07;;
75516;SDS011;64097;52.548;13.406;2023-06-26T12:59:29;4.85;;;4.55;;
75516;SDS011;64097;52.548;13.406;2023-06-26T13:01:56;4.40;;;4.10;;
75516;SDS011;64097;52.548;13.406;2023-06-26T13:04:22;5.80;;;4.72;;
75516;SDS011;64097;52.548;13.406;2023-06-26T13:06:48;4.55;;;4.15;;
75516;SDS011;64097;52.548;13.406;2023-06-26T13:09:14;8.20;;;4.43;;
75516;SDS011;64097;52.548;13.406;2023-06-26T13:11:41;4.93;;;4.53;;
75516;SDS011;64097;52.548;13.406;2023-06-26T13:14:06;4.93;;;4.50;;
75516;SDS011;64097;52.548;13.406;2023-06-26T13:16:32;5.70;;;5.20;;
75516;SDS011;64097;52.548;13.406;2023-06-26T13:18:58;6.18;;;4.95;;
75516;SDS011;64097;52.548;13.406;2023-06-26T13:21:26;5.22;;;4.82;;
75516;SDS011;64097;52.548;13.406;2023-06-26T13:23:52;5.28;;;4.88;;
75516;SDS011;64097;52.548;13.406;2023-06-26T13:26:19;5.10;;;4.70;;
75516;SDS011;64097;52.548;13.406;2023-06-26T13:28:46;5.47;;;4.93;;
75516;SDS011;64097;52.548;13.406;2023-06-26T13:31:13;5.60;;;5.10;;
75516;SDS011;64097;52.548;13.406;2023-06-26T13:33:39;5.50;;;5.00;;
75516;SDS011;64097;52.548;13.406;2023-06-26T13:36:04;5.03;;;4.53;;
75516;SDS011;64097;52.548;13.406;2023-06-26T13:38:32;5.55;;;5.05;;
75516;SDS011;64097;52.548;13.406;2023-06-26T13:40:59;4.93;;;4.53;;
75516;SDS011;64097;52.548;13.406;2023-06-26T13:43:27;5.88;;;5.25;;
75516;SDS011;64097;52.548;13.406;2023-06-26T13:45:53;5.43;;;4.97;;
75516;SDS011;64097;52.548;13.406;2023-06-26T13:48:20;5.22;;;4.82;;
75516;SDS011;64097;52.548;13.406;2023-06-26T13:50:46;5.47;;;4.93;;
75516;SDS011;64097;52.548;13.406;2023-06-26T13:53:12;5.57;;;5.18;;
75516;SDS011;64097;52.548;13.406;2023-06-26T13:55:39;8.40;;;5.20;;
75516;SDS011;64097;52.548;13.406;2023-06-26T13:58:05;5.38;;;4.72;;
